createdAt,value
2022-09-10T00:01:36.260Z,12.90
2022-09-10T00:04:03.671Z,13.00
2022-09-10T00:06:31.626Z,12.90
2022-09-10T00:08:58.667Z,12.90
2022-09-10T00:11:25.988Z,12.90
2022-09-10T00:13:53.090Z,12.70
2022-09-10T00:16:20.196Z,12.70
2022-09-10T00:18:47.413Z,12.70
2022-09-10T00:21:15.525Z,12.60
2022-09-10T00:23:45.513Z,12.40
2022-09-10T00:26:22.731Z,12.30
2022-09-10T00:28:50.149Z,12.20
2022-09-10T00:31:17.895Z,12.20
2022-09-10T00:33:44.944Z,12.30
2022-09-10T00:36:19.357Z,12.30
2022-09-10T00:38:46.817Z,12.40
2022-09-10T00:41:14.371Z,12.40
2022-09-10T00:43:45.586Z,12.50
2022-09-10T00:46:12.593Z,12.40
2022-09-10T00:48:39.708Z,12.50
2022-09-10T00:51:06.762Z,12.50
2022-09-10T00:53:33.766Z,12.40
2022-09-10T00:56:00.902Z,12.50
2022-09-10T00:58:28.066Z,12.50
2022-09-10T01:00:56.131Z,12.50
2022-09-10T01:03:25.667Z,12.40
2022-09-10T01:05:52.993Z,12.40
2022-09-10T01:08:20.087Z,12.40
2022-09-10T01:10:47.958Z,12.40
2022-09-10T01:13:21.703Z,12.40
2022-09-10T01:16:00.495Z,12.50
2022-09-10T01:18:37.606Z,12.50
2022-09-10T01:21:13.986Z,12.40
2022-09-10T01:23:59.997Z,12.40
2022-09-10T01:26:36.556Z,12.40
2022-09-10T01:29:24.322Z,12.40
2022-09-10T01:32:07.194Z,12.50
2022-09-10T01:34:37.274Z,12.50
2022-09-10T01:37:06.274Z,12.60
2022-09-10T01:39:34.198Z,12.60
2022-09-10T01:42:01.790Z,12.60
2022-09-10T01:44:43.066Z,12.60
2022-09-10T01:47:18.809Z,12.60
2022-09-10T01:49:45.837Z,12.70
2022-09-10T01:52:17.730Z,12.70
2022-09-10T01:54:47.060Z,12.70
2022-09-10T01:57:33.404Z,12.70
2022-09-10T02:00:02.786Z,12.70
2022-09-10T02:02:47.970Z,12.70
2022-09-10T02:05:15.192Z,12.80
2022-09-10T02:07:44.599Z,12.80
2022-09-10T02:10:11.706Z,12.80
2022-09-10T02:12:45.053Z,12.70
2022-09-10T02:15:32.525Z,12.70
2022-09-10T02:18:28.959Z,12.70
2022-09-10T02:20:56.018Z,12.70
2022-09-10T02:23:24.694Z,12.70
2022-09-10T02:25:51.907Z,12.70
2022-09-10T02:28:21.538Z,12.70
2022-09-10T02:30:48.577Z,12.70
2022-09-10T02:33:18.649Z,12.80
2022-09-10T02:35:47.690Z,12.80
2022-09-10T02:38:16.721Z,12.80
2022-09-10T02:40:44.231Z,12.80
2022-09-10T02:43:11.234Z,12.80
2022-09-10T02:45:41.079Z,12.90
2022-09-10T02:48:08.109Z,12.90
2022-09-10T02:50:36.160Z,12.80
2022-09-10T02:53:04.664Z,12.80
2022-09-10T02:55:31.891Z,12.70
2022-09-10T02:57:58.904Z,12.60
2022-09-10T03:00:26.257Z,12.60
2022-09-10T03:03:00.962Z,12.60
2022-09-10T03:05:29.953Z,12.60
2022-09-10T03:07:57.810Z,12.50
2022-09-10T03:10:24.942Z,12.50
2022-09-10T03:12:53.106Z,12.50
2022-09-10T03:15:20.632Z,12.40
2022-09-10T03:17:47.650Z,12.40
2022-09-10T03:20:14.707Z,12.40
2022-09-10T03:22:41.705Z,12.30
2022-09-10T03:25:11.905Z,12.20
2022-09-10T03:27:39.078Z,12.20
2022-09-10T03:30:08.503Z,12.20
2022-09-10T03:32:35.626Z,12.20
2022-09-10T03:35:04.723Z,12.20
2022-09-10T03:37:31.923Z,12.30
2022-09-10T03:39:58.971Z,12.30
2022-09-10T03:42:26.053Z,12.40
2022-09-10T03:44:53.502Z,12.40
2022-09-10T03:47:20.551Z,12.40
2022-09-10T03:49:47.676Z,12.50
2022-09-10T03:52:14.721Z,12.50
2022-09-10T03:54:42.964Z,12.50
2022-09-10T03:57:09.976Z,12.60
2022-09-10T03:59:41.080Z,12.60
2022-09-10T04:02:10.054Z,12.70
2022-09-10T04:04:37.509Z,12.70
2022-09-10T04:07:04.740Z,12.70
2022-09-10T04:09:32.720Z,12.70
2022-09-10T04:12:00.423Z,12.70
2022-09-10T04:14:29.880Z,12.70
2022-09-10T04:16:58.891Z,12.80
2022-09-10T04:19:28.066Z,12.80
2022-09-10T04:21:56.689Z,12.80
2022-09-10T04:24:23.706Z,12.80
2022-09-10T04:26:50.816Z,12.80
2022-09-10T04:29:19.064Z,12.80
2022-09-10T04:31:46.724Z,12.80
2022-09-10T04:34:16.358Z,12.80
2022-09-10T04:36:43.539Z,12.90
2022-09-10T04:39:10.619Z,12.90
2022-09-10T04:41:38.164Z,13.00
2022-09-10T04:44:06.953Z,13.10
2022-09-10T04:46:34.917Z,13.10
2022-09-10T04:49:03.292Z,13.00
2022-09-10T04:51:31.226Z,13.00
2022-09-10T04:53:59.344Z,12.90
2022-09-10T04:56:30.866Z,12.90
2022-09-10T04:58:58.568Z,12.90
2022-09-10T05:01:28.918Z,12.90
2022-09-10T05:03:55.977Z,13.00
2022-09-10T05:06:23.585Z,13.00
2022-09-10T05:08:50.877Z,13.00
2022-09-10T05:11:21.209Z,13.10
2022-09-10T05:13:48.258Z,13.00
2022-09-10T05:16:19.026Z,13.10
2022-09-10T05:18:46.146Z,13.10
2022-09-10T05:21:13.647Z,13.10
2022-09-10T05:23:41.881Z,13.20
2022-09-10T05:26:10.016Z,13.20
2022-09-10T05:28:37.281Z,13.20
2022-09-10T05:31:07.235Z,13.20
2022-09-10T05:33:34.784Z,13.20
2022-09-10T05:36:02.099Z,13.20
2022-09-10T05:38:31.361Z,13.30
2022-09-10T05:40:58.396Z,13.30
2022-09-10T05:43:27.418Z,13.20
2022-09-10T05:45:55.932Z,13.30
2022-09-10T05:48:22.998Z,13.30
2022-09-10T05:50:50.803Z,13.30
2022-09-10T05:53:18.198Z,13.30
2022-09-10T05:55:46.027Z,13.30
2022-09-10T05:58:13.645Z,13.30
2022-09-10T06:00:43.163Z,13.30
2022-09-10T06:03:10.525Z,13.30
2022-09-10T06:05:40.975Z,13.30
2022-09-10T06:08:09.113Z,13.40
2022-09-10T06:10:40.441Z,13.40
2022-09-10T06:13:07.763Z,13.40
2022-09-10T06:15:35.630Z,13.30
2022-09-10T06:18:02.819Z,13.30
2022-09-10T06:20:30.552Z,13.30
2022-09-10T06:22:57.575Z,13.20
2022-09-10T06:25:24.676Z,13.10
2022-09-10T06:27:51.878Z,13.00
2022-09-10T06:30:21.546Z,13.00
2022-09-10T06:32:49.100Z,13.00
2022-09-10T06:35:16.550Z,12.90
2022-09-10T06:37:44.064Z,12.90
2022-09-10T06:40:13.251Z,12.80
2022-09-10T06:42:42.099Z,12.80
2022-09-10T06:45:14.835Z,12.80
2022-09-10T06:50:53.319Z,12.80
2022-09-10T06:53:22.039Z,12.80
2022-09-10T06:55:50.563Z,12.90
2022-09-10T06:58:19.743Z,12.90
2022-09-10T07:00:47.562Z,13.00
2022-09-10T07:03:18.996Z,13.10
2022-09-10T07:05:46.143Z,13.10
2022-09-10T07:08:14.677Z,13.10
2022-09-10T07:10:42.218Z,13.20
2022-09-10T07:13:09.355Z,13.20
2022-09-10T07:15:36.787Z,13.20
2022-09-10T07:18:04.363Z,13.30
2022-09-10T07:20:33.084Z,13.50
2022-09-10T07:23:00.700Z,13.50
2022-09-10T07:25:29.300Z,13.50
2022-09-10T07:28:02.770Z,13.50
2022-09-10T07:30:32.368Z,13.60
2022-09-10T07:32:59.703Z,13.60
2022-09-10T07:35:28.578Z,13.70
2022-09-10T07:37:55.975Z,13.70
2022-09-10T07:40:23.507Z,13.80
2022-09-10T07:42:52.302Z,13.80
2022-09-10T07:45:19.377Z,13.90
2022-09-10T07:47:47.453Z,14.10
2022-09-10T07:50:14.909Z,14.00
2022-09-10T07:52:42.125Z,13.90
2022-09-10T07:55:09.686Z,13.80
2022-09-10T07:57:39.468Z,13.80
2022-09-10T08:00:16.728Z,13.80
2022-09-10T08:02:48.382Z,13.80
2022-09-10T08:05:19.105Z,13.80
2022-09-10T08:07:46.591Z,13.80
2022-09-10T08:10:13.794Z,13.80
2022-09-10T08:12:42.196Z,13.90
2022-09-10T08:15:10.742Z,13.90
2022-09-10T08:17:40.031Z,13.90
2022-09-10T08:20:09.798Z,14.00
2022-09-10T08:22:38.799Z,14.10
2022-09-10T08:25:06.109Z,14.20
2022-09-10T08:27:34.371Z,14.40
2022-09-10T08:30:04.326Z,14.40
2022-09-10T08:32:31.664Z,14.50
2022-09-10T08:34:58.763Z,14.70
2022-09-10T08:37:27.169Z,14.90
2022-09-10T08:39:54.929Z,14.90
2022-09-10T08:42:30.691Z,15.00
2022-09-10T08:45:12.170Z,15.30
2022-09-10T08:47:53.261Z,15.40
2022-09-10T08:50:32.855Z,15.50
2022-09-10T08:53:22.901Z,15.40
2022-09-10T08:55:50.722Z,15.30
2022-09-10T08:58:19.067Z,15.30
2022-09-10T09:00:47.929Z,15.20
2022-09-10T09:03:22.539Z,15.20
2022-09-10T09:06:00.476Z,15.20
2022-09-10T09:08:41.676Z,15.20
2022-09-10T09:11:22.475Z,15.20
2022-09-10T09:13:59.291Z,15.20
2022-09-10T09:16:33.871Z,15.20
2022-09-10T09:19:05.987Z,15.20
2022-09-10T09:21:42.911Z,15.30
2022-09-10T09:24:21.191Z,15.30
2022-09-10T09:26:52.173Z,15.40
2022-09-10T09:29:19.699Z,15.50
2022-09-10T09:31:49.754Z,15.50
2022-09-10T09:34:21.983Z,15.50
2022-09-10T09:36:50.132Z,15.50
2022-09-10T09:39:25.620Z,15.60
2022-09-10T09:42:05.758Z,15.50
2022-09-10T09:44:57.191Z,15.50
2022-09-10T09:47:25.246Z,15.40
2022-09-10T09:49:53.921Z,15.30
2022-09-10T09:52:21.415Z,15.20
2022-09-10T09:57:42.739Z,15.20
2022-09-10T10:00:39.557Z,15.10
2022-09-10T10:03:18.061Z,15.00
2022-09-10T10:05:46.676Z,14.90
2022-09-10T10:08:25.949Z,14.60
2022-09-10T10:10:53.722Z,14.30
2022-09-10T10:13:21.464Z,14.20
2022-09-10T10:15:48.865Z,14.20
2022-09-10T10:18:22.026Z,14.30
2022-09-10T10:20:49.626Z,14.40
2022-09-10T10:23:31.218Z,14.40
2022-09-10T10:25:58.355Z,14.50
2022-09-10T10:28:25.667Z,14.50
2022-09-10T10:30:53.423Z,14.60
2022-09-10T10:33:23.198Z,14.60
2022-09-10T10:35:53.851Z,14.80
2022-09-10T10:38:20.890Z,15.00
2022-09-10T10:41:08.063Z,15.10
2022-09-10T10:43:38.098Z,15.30
2022-09-10T10:46:09.898Z,15.60
2022-09-10T10:48:43.149Z,15.70
2022-09-10T10:51:10.191Z,15.70
2022-09-10T10:53:56.455Z,15.80
2022-09-10T10:56:36.082Z,15.70
2022-09-10T10:59:23.389Z,15.70
2022-09-10T11:01:52.478Z,15.70
2022-09-10T11:04:24.678Z,15.80
2022-09-10T11:07:03.151Z,15.70
2022-09-10T11:09:32.232Z,15.80
2022-09-10T11:12:03.330Z,15.80
2022-09-10T11:14:48.564Z,15.90
2022-09-10T11:17:20.275Z,16.10
2022-09-10T11:20:27.312Z,16.30
2022-09-10T11:22:55.762Z,16.60
2022-09-10T11:25:26.249Z,16.60
2022-09-10T11:28:11.619Z,16.70
2022-09-10T11:30:38.666Z,16.70
2022-09-10T11:33:07.394Z,16.70
2022-09-10T11:35:35.990Z,16.70
2022-09-10T11:38:11.309Z,16.80
2022-09-10T11:40:52.638Z,16.80
2022-09-10T11:43:41.122Z,16.80
2022-09-10T11:46:09.841Z,16.80
2022-09-10T11:48:45.963Z,16.80
2022-09-10T11:51:22.224Z,16.70
2022-09-10T11:53:50.042Z,16.70
2022-09-10T11:56:35.524Z,16.80
2022-09-10T11:59:17.787Z,17.00
2022-09-10T12:01:49.229Z,17.30
2022-09-10T12:04:39.710Z,17.30
2022-09-10T12:07:17.557Z,17.30
2022-09-10T12:09:50.289Z,17.30
2022-09-10T12:12:20.467Z,17.40
2022-09-10T12:14:47.573Z,17.30
2022-09-10T12:17:16.088Z,17.40
2022-09-10T12:19:47.044Z,17.40
2022-09-10T12:22:19.289Z,17.50
2022-09-10T12:24:54.574Z,17.60
2022-09-10T12:27:21.939Z,17.70
2022-09-10T12:29:49.222Z,17.90
2022-09-10T12:32:19.225Z,17.80
2022-09-10T12:34:49.783Z,18.00
2022-09-10T12:37:21.224Z,18.10
2022-09-10T12:39:48.981Z,18.00
2022-09-10T12:42:45.184Z,18.10
2022-09-10T12:45:12.258Z,18.30
2022-09-10T12:47:43.187Z,18.60
2022-09-10T12:50:29.425Z,18.70
2022-09-10T12:53:14.918Z,18.80
2022-09-10T12:55:52.900Z,18.70
2022-09-10T12:58:26.702Z,18.80
2022-09-10T13:00:53.807Z,19.10
2022-09-10T13:03:21.025Z,19.30
2022-09-10T13:05:51.280Z,19.00
2022-09-10T13:08:21.412Z,19.10
2022-09-10T13:10:50.072Z,18.90
2022-09-10T13:13:33.009Z,18.70
2022-09-10T13:16:00.253Z,18.60
2022-09-10T13:18:30.935Z,18.50
2022-09-10T13:20:58.685Z,18.40
2022-09-10T13:23:42.987Z,18.60
2022-09-10T13:26:28.369Z,18.70
2022-09-10T13:28:56.159Z,18.60
2022-09-10T13:31:25.082Z,18.60
2022-09-10T13:33:56.107Z,18.70
2022-09-10T13:36:23.093Z,18.80
2022-09-10T13:38:54.260Z,19.10
2022-09-10T13:41:33.553Z,19.30
2022-09-10T13:44:20.344Z,19.10
2022-09-10T13:46:48.587Z,18.70
2022-09-10T13:49:21.678Z,18.30
2022-09-10T13:51:48.740Z,18.20
2022-09-10T13:54:42.217Z,18.10
2022-09-10T13:57:13.206Z,18.00
2022-09-10T13:59:40.763Z,17.90
2022-09-10T14:02:07.827Z,17.90
2022-09-10T14:04:41.990Z,18.00
2022-09-10T14:07:25.476Z,17.90
2022-09-10T14:09:52.995Z,17.90
2022-09-10T14:12:20.827Z,17.90
2022-09-10T14:14:49.083Z,18.10
2022-09-10T14:17:20.584Z,18.40
2022-09-10T14:20:01.362Z,18.50
2022-09-10T14:22:28.696Z,18.50
2022-09-10T14:24:56.392Z,18.50
2022-09-10T14:27:24.562Z,18.40
2022-09-10T14:29:52.480Z,18.60
2022-09-10T14:32:30.013Z,18.90
2022-09-10T14:34:57.252Z,19.20
2022-09-10T14:37:34.174Z,19.40
2022-09-10T14:40:01.757Z,19.30
2022-09-10T14:42:35.381Z,19.30
2022-09-10T14:45:03.054Z,19.30
2022-09-10T14:47:32.395Z,19.50
2022-09-10T14:50:17.974Z,19.60
2022-09-10T14:52:44.983Z,19.40
2022-09-10T14:55:12.132Z,18.90
2022-09-10T14:57:39.206Z,18.70
2022-09-10T15:00:06.448Z,18.50
2022-09-10T15:02:33.485Z,18.30
2022-09-10T15:05:00.563Z,18.20
2022-09-10T15:07:27.822Z,18.10
2022-09-10T15:09:55.013Z,18.00
2022-09-10T15:12:23.786Z,17.90
2022-09-10T15:14:51.045Z,17.80
2022-09-10T15:17:18.144Z,17.70
2022-09-10T15:19:45.270Z,17.70
2022-09-10T15:22:21.562Z,17.50
2022-09-10T15:25:08.552Z,17.40
2022-09-10T15:27:35.963Z,17.30
2022-09-10T15:30:03.069Z,17.20
2022-09-10T15:32:30.693Z,16.70
2022-09-10T15:34:57.707Z,16.20
2022-09-10T15:37:24.771Z,15.50
2022-09-10T15:39:52.646Z,15.10
2022-09-10T15:42:19.723Z,14.90
2022-09-10T15:44:47.303Z,14.60
2022-09-10T15:47:14.838Z,14.50
2022-09-10T15:49:41.866Z,14.30
2022-09-10T15:52:10.138Z,14.30
2022-09-10T15:54:37.171Z,14.20
2022-09-10T15:57:04.202Z,14.00
2022-09-10T15:59:31.223Z,14.00
2022-09-10T16:01:58.437Z,13.90
2022-09-10T16:04:25.963Z,13.90
2022-09-10T16:06:52.992Z,14.00
2022-09-10T16:09:20.096Z,14.00
2022-09-10T16:11:48.135Z,13.90
2022-09-10T16:14:16.669Z,14.00
2022-09-10T16:16:43.681Z,14.00
2022-09-10T16:19:11.804Z,14.00
2022-09-10T16:21:39.266Z,14.00
2022-09-10T16:24:06.388Z,14.00
2022-09-10T16:26:34.631Z,14.20
2022-09-10T16:29:02.584Z,14.30
2022-09-10T16:31:34.148Z,14.40
2022-09-10T16:34:04.698Z,14.50
2022-09-10T16:36:32.984Z,14.50
2022-09-10T16:39:03.261Z,14.60
2022-09-10T16:41:31.743Z,15.00
2022-09-10T16:43:59.330Z,15.40
2022-09-10T16:46:27.012Z,15.60
2022-09-10T16:48:54.189Z,15.70
2022-09-10T16:51:23.170Z,15.50
2022-09-10T16:53:55.699Z,15.40
2022-09-10T16:56:22.983Z,15.30
2022-09-10T16:58:50.016Z,15.20
2022-09-10T17:01:17.152Z,15.10
2022-09-10T17:03:44.991Z,15.10
2022-09-10T17:06:22.152Z,15.10
2022-09-10T17:08:50.083Z,15.00
2022-09-10T17:11:17.570Z,15.10
2022-09-10T17:13:45.301Z,15.10
2022-09-10T17:16:12.315Z,14.90
2022-09-10T17:18:39.428Z,15.00
2022-09-10T17:21:06.493Z,15.00
2022-09-10T17:23:33.514Z,14.90
2022-09-10T17:26:04.102Z,14.80
2022-09-10T17:28:33.057Z,14.80
2022-09-10T17:31:00.556Z,14.70
2022-09-10T17:33:27.888Z,14.70
2022-09-10T17:35:56.400Z,14.70
2022-09-10T17:38:24.865Z,14.70
2022-09-10T17:40:59.975Z,14.80
2022-09-10T17:43:27.620Z,14.80
2022-09-10T17:45:55.237Z,14.70
2022-09-10T17:48:26.309Z,14.80
2022-09-10T17:50:55.089Z,14.70
2022-09-10T17:53:22.087Z,14.70
2022-09-10T17:55:49.100Z,14.70
2022-09-10T17:58:16.508Z,14.70
2022-09-10T18:00:47.421Z,14.70
2022-09-10T18:03:20.563Z,14.60
2022-09-10T18:05:47.597Z,14.50
2022-09-10T18:08:14.703Z,14.50
2022-09-10T18:10:41.707Z,14.30
2022-09-10T18:13:10.004Z,14.30
2022-09-10T18:15:46.297Z,14.30
2022-09-10T18:18:13.366Z,14.30
2022-09-10T18:20:40.902Z,14.30
2022-09-10T18:23:08.219Z,14.20
2022-09-10T18:25:35.223Z,14.20
2022-09-10T18:28:03.066Z,14.20
2022-09-10T18:30:30.214Z,14.10
2022-09-10T18:32:57.611Z,14.10
2022-09-10T18:35:24.653Z,14.10
2022-09-10T18:37:51.821Z,14.00
2022-09-10T18:40:19.579Z,14.00
2022-09-10T18:42:49.550Z,14.00
2022-09-10T18:45:17.329Z,14.00
2022-09-10T18:47:45.439Z,14.00
2022-09-10T18:50:13.160Z,14.00
2022-09-10T18:52:40.240Z,14.00
2022-09-10T18:55:07.439Z,14.00
2022-09-10T18:57:34.458Z,14.00
2022-09-10T19:00:01.607Z,14.00
2022-09-10T19:02:28.734Z,13.90
2022-09-10T19:05:11.629Z,13.90
2022-09-10T19:07:39.192Z,13.90
2022-09-10T19:10:07.037Z,13.90
2022-09-10T19:12:34.342Z,13.90
2022-09-10T19:15:01.383Z,13.90
2022-09-10T19:17:28.443Z,14.00
2022-09-10T19:19:55.522Z,13.90
2022-09-10T19:22:22.549Z,13.90
2022-09-10T19:24:54.814Z,14.00
2022-09-10T19:27:22.879Z,13.90
2022-09-10T19:29:50.106Z,13.90
2022-09-10T19:32:19.610Z,13.90
2022-09-10T19:34:50.605Z,13.90
2022-09-10T19:37:17.732Z,13.90
2022-09-10T19:39:44.863Z,13.80
2022-09-10T19:42:12.469Z,13.80
2022-09-10T19:44:39.506Z,13.80
2022-09-10T19:47:06.579Z,13.80
2022-09-10T19:49:34.145Z,13.80
2022-09-10T19:52:01.339Z,13.80
2022-09-10T19:54:30.275Z,13.80
2022-09-10T19:56:57.297Z,13.80
2022-09-10T19:59:24.371Z,13.80
2022-09-10T20:01:51.490Z,13.70
2022-09-10T20:04:18.834Z,13.70
2022-09-10T20:06:47.562Z,13.60
2022-09-10T20:09:14.656Z,13.60
2022-09-10T20:11:41.718Z,13.50
2022-09-10T20:14:10.313Z,13.60
2022-09-10T20:16:37.906Z,13.50
2022-09-10T20:19:05.359Z,13.50
2022-09-10T20:21:32.488Z,13.50
2022-09-10T20:23:59.543Z,13.40
2022-09-10T20:26:30.240Z,13.40
2022-09-10T20:29:01.130Z,13.30
2022-09-10T20:31:28.530Z,13.30
2022-09-10T20:33:56.486Z,13.30
2022-09-10T20:36:23.520Z,13.40
2022-09-10T20:38:50.929Z,13.40
2022-09-10T20:41:18.423Z,13.30
2022-09-10T20:43:50.594Z,13.40
2022-09-10T20:46:17.912Z,13.40
2022-09-10T20:48:49.036Z,13.40
2022-09-10T20:51:17.792Z,13.40
2022-09-10T20:53:44.840Z,13.40
2022-09-10T20:56:12.961Z,13.50
2022-09-10T20:58:40.364Z,13.50
2022-09-10T21:01:08.479Z,13.50
2022-09-10T21:03:35.649Z,13.60
2022-09-10T21:06:02.751Z,13.50
2022-09-10T21:08:32.891Z,13.50
2022-09-10T21:11:08.183Z,13.50
2022-09-10T21:13:36.247Z,13.60
2022-09-10T21:16:04.392Z,13.60
2022-09-10T21:18:31.439Z,13.50
2022-09-10T21:21:11.927Z,13.50
2022-09-10T21:23:42.968Z,13.50
2022-09-10T21:26:10.791Z,13.40
2022-09-10T21:28:38.351Z,13.40
2022-09-10T21:31:06.126Z,13.40
2022-09-10T21:33:33.515Z,13.40
2022-09-10T21:36:06.269Z,13.40
2022-09-10T21:38:35.052Z,13.40
2022-09-10T21:41:03.059Z,13.40
2022-09-10T21:43:33.487Z,13.40
2022-09-10T21:46:01.128Z,13.40
2022-09-10T21:48:29.167Z,13.30
2022-09-10T21:50:59.333Z,13.40
2022-09-10T21:53:29.340Z,13.40
2022-09-10T21:55:56.649Z,13.40
2022-09-10T21:58:24.033Z,13.40
2022-09-10T22:00:51.048Z,13.40
2022-09-10T22:03:18.067Z,13.40
2022-09-10T22:05:46.289Z,13.40
2022-09-10T22:08:13.471Z,13.40
2022-09-10T22:10:41.939Z,13.50
2022-09-10T22:13:09.327Z,13.50
2022-09-10T22:15:39.720Z,13.50
2022-09-10T22:18:07.651Z,13.50
2022-09-10T22:20:35.318Z,13.50
2022-09-10T22:23:02.647Z,13.50
2022-09-10T22:25:29.689Z,13.50
2022-09-10T22:27:58.227Z,13.50
2022-09-10T22:30:27.747Z,13.50
2022-09-10T22:32:55.546Z,13.50
2022-09-10T22:35:26.098Z,13.50
2022-09-10T22:37:56.514Z,13.40
2022-09-10T22:40:23.949Z,13.40
2022-09-10T22:42:51.633Z,13.40
2022-09-10T22:45:21.018Z,13.40
2022-09-10T22:47:48.108Z,13.40
2022-09-10T22:50:15.355Z,13.40
2022-09-10T22:52:43.625Z,13.40
2022-09-10T22:55:10.694Z,13.30
2022-09-10T22:57:39.466Z,13.40
2022-09-10T23:00:06.803Z,13.30
2022-09-10T23:02:33.827Z,13.30
2022-09-10T23:05:01.148Z,13.30
2022-09-10T23:07:28.163Z,13.30
2022-09-10T23:09:55.744Z,13.30
2022-09-10T23:12:22.769Z,13.30
2022-09-10T23:14:49.795Z,13.30
2022-09-10T23:17:19.578Z,13.30
2022-09-10T23:19:49.399Z,13.30
2022-09-10T23:22:16.443Z,13.30
2022-09-10T23:24:43.519Z,13.30
2022-09-10T23:27:10.532Z,13.30
2022-09-10T23:29:37.978Z,13.30
2022-09-10T23:32:05.043Z,13.30
2022-09-10T23:34:32.066Z,13.30
2022-09-10T23:36:59.086Z,13.30
2022-09-10T23:39:26.865Z,13.30
2022-09-10T23:41:54.688Z,13.30
2022-09-10T23:44:21.728Z,13.40
2022-09-10T23:46:48.843Z,13.40
2022-09-10T23:49:15.949Z,13.40
2022-09-10T23:51:43.092Z,13.30
2022-09-10T23:54:10.243Z,13.40
2022-09-10T23:56:37.755Z,13.30
2022-09-10T23:59:04.778Z,13.30
